Terminal Aerodrome Forecast
Issued by NWS Charleston, WV

Current Version | Previous Version | Graphics & Text | Print | Product List | Glossary On
Versions: 1 2 3 4 5 6 7 8 9 10 11 12 13 14 15 16 17 18 19 20 21 22
018
FTUS41 KRLX 151800 AAA
TAFPKB
TAF AMD
KPKB 151800Z 1518/1618 25009KT P6SM SCT035
     FM152000 25007KT P6SM BKN045
     FM160200 26009KT P6SM SKC
     FM160600 24008KT P6SM BKN035
     FM161000 23007KT P6SM SCT100=

USA.gov is the U.S. government's official web portal to all federal, state and local government web resources and services.